Sacramento, California
Traffic Map
Current Weather Conditions
Sacramento, California
Clear
Clear
54°
Feels Like: 54°
Wind Chill: 54° Ceiling: Unl
Heat Index: 54° Visibility: 10mi
Dew Point: 40° Wind: 5mph
Humidity: 59% Direction: 90° (E)
Pressure: 30.05in Gusts: 0mph
Raw Report DataKSAC 062153Z 09004KT 10SM CLR 12/04 A3005 RMK AO2 SLP174 T01220044
Traffic Incident Summary
Active as of:
Severity:
Category:
InformationThere was an issue retrieving the traffic information for this location. Please try a different location or try again shortly.
Advertisements
Track Severe Weather on mobile